Fineview, New York
Current Conditions -  °F | °C
As of 8:56 AM on Saturday 20 Dec 2014 (Local Time) from KART Reporting Station
Few Clouds Few Clouds  
Wind Chill: 18°   Ceiling: Unl
Heat Index: 18°   Visibility: 10mi
Dew Point: 11°   Wind: 0mph
Humidity: 74%   Direction: NA
Pressure: 30.33"   Gusts: NA
Location:  44.2876°N, 76.0127°W
Report Text: KART 201356Z AUTO 00000KT 10SM FEW090 M08/M12 A3033 RMK AO2 SLP279 T10781117
Loading
Personal Weather Stations






























Interactive Weather Map New forecast layout! Learn more

10-Day Weather Forecast

Advertisements
Track Severe Weather on mobile